createdAt,value
2023-03-18T00:00:10.312Z,0.00
2023-03-18T00:02:38.861Z,0.10
2023-03-18T00:05:07.566Z,0.30
2023-03-18T00:07:36.279Z,0.40
2023-03-18T00:10:07.150Z,0.10
2023-03-18T00:12:34.514Z,0.00
2023-03-18T00:15:02.456Z,0.00
2023-03-18T00:17:29.149Z,0.00
2023-03-18T00:19:55.854Z,0.40
2023-03-18T00:22:22.844Z,0.00
2023-03-18T00:24:49.437Z,0.00
2023-03-18T00:27:16.418Z,0.00
2023-03-18T00:29:43.894Z,0.00
2023-03-18T00:32:11.219Z,0.10
2023-03-18T00:34:37.963Z,0.00
2023-03-18T00:37:05.149Z,0.15
2023-03-18T00:39:33.149Z,0.20
2023-03-18T00:42:08.154Z,0.03
2023-03-18T00:44:34.848Z,0.22
2023-03-18T00:47:01.689Z,0.00
2023-03-18T00:49:28.472Z,0.10
2023-03-18T00:51:55.186Z,0.10
2023-03-18T00:54:22.586Z,0.00
2023-03-18T00:56:49.633Z,1.27
2023-03-18T00:59:16.884Z,0.00
2023-03-18T01:01:44.495Z,0.00
2023-03-18T01:04:11.591Z,0.00
2023-03-18T01:06:38.579Z,10.60
2023-03-18T01:09:06.871Z,0.00
2023-03-18T01:11:33.516Z,0.10
2023-03-18T01:14:00.637Z,0.20
2023-03-18T01:16:28.278Z,0.00
2023-03-18T01:18:55.153Z,0.00
2023-03-18T01:21:22.482Z,0.00
2023-03-18T01:23:54.292Z,0.00
2023-03-18T01:26:21.245Z,0.00
2023-03-18T01:28:48.109Z,0.00
2023-03-18T01:31:15.458Z,0.00
2023-03-18T01:33:43.995Z,0.00
2023-03-18T01:36:11.558Z,0.10
2023-03-18T01:38:38.778Z,0.00
2023-03-18T01:41:12.120Z,0.08
2023-03-18T01:43:41.152Z,0.05
2023-03-18T01:46:32.740Z,0.03
2023-03-18T01:49:03.970Z,0.03
2023-03-18T01:51:31.168Z,0.00
2023-03-18T01:53:59.793Z,0.00
2023-03-18T01:56:27.016Z,0.00
2023-03-18T01:58:55.542Z,0.00
2023-03-18T02:01:26.388Z,0.00
2023-03-18T02:03:55.579Z,0.10
2023-03-18T02:06:25.655Z,0.10
2023-03-18T02:09:00.523Z,0.00
2023-03-18T02:11:31.851Z,0.00
2023-03-18T02:14:00.174Z,0.00
2023-03-18T02:16:32.442Z,0.08
2023-03-18T02:19:05.559Z,0.00
2023-03-18T02:21:32.215Z,0.10
2023-03-18T02:24:05.839Z,0.00
2023-03-18T02:26:42.011Z,0.00
2023-03-18T02:29:08.995Z,0.00
2023-03-18T02:31:46.606Z,0.00
2023-03-18T02:34:13.591Z,0.00
2023-03-18T02:36:42.661Z,0.08
2023-03-18T02:39:13.972Z,0.00
2023-03-18T02:41:40.859Z,0.03
2023-03-18T02:44:08.735Z,0.00
2023-03-18T02:46:55.327Z,0.00
2023-03-18T02:49:24.412Z,0.00
2023-03-18T02:51:51.901Z,0.00
2023-03-18T02:54:29.686Z,0.00
2023-03-18T02:56:56.967Z,0.00
2023-03-18T02:59:24.281Z,0.10
2023-03-18T03:01:53.188Z,0.00
2023-03-18T03:04:23.743Z,0.00
2023-03-18T03:06:52.226Z,0.05
2023-03-18T03:09:27.396Z,0.00
2023-03-18T03:11:54.178Z,0.00
2023-03-18T03:14:25.956Z,0.03
2023-03-18T03:16:58.009Z,0.10
2023-03-18T03:19:24.779Z,0.10
2023-03-18T03:21:51.441Z,0.00
2023-03-18T03:24:18.287Z,0.00
2023-03-18T03:26:46.787Z,0.30
2023-03-18T03:29:14.435Z,0.10
2023-03-18T03:31:41.612Z,0.00
2023-03-18T03:34:08.281Z,0.00
2023-03-18T03:36:35.390Z,0.00
2023-03-18T03:39:02.424Z,0.00
2023-03-18T03:41:29.000Z,0.00
2023-03-18T03:43:55.715Z,0.00
2023-03-18T03:46:22.484Z,0.00
2023-03-18T03:48:50.222Z,0.00
2023-03-18T03:51:16.876Z,0.00
2023-03-18T03:53:44.680Z,0.77
2023-03-18T03:56:11.517Z,0.00
2023-03-18T03:58:38.633Z,0.10
2023-03-18T04:01:06.516Z,0.10
2023-03-18T04:03:33.948Z,0.50
2023-03-18T04:06:01.616Z,0.00
2023-03-18T04:08:30.585Z,0.00
2023-03-18T04:10:59.303Z,0.40
2023-03-18T04:13:26.322Z,0.00
2023-03-18T04:15:54.877Z,0.00
2023-03-18T04:18:21.686Z,0.00
2023-03-18T04:20:48.529Z,0.00
2023-03-18T04:23:24.134Z,0.05
2023-03-18T04:25:51.227Z,1.05
2023-03-18T04:28:18.078Z,0.28
2023-03-18T04:30:44.996Z,0.00
2023-03-18T04:33:15.677Z,0.10
2023-03-18T04:35:43.666Z,0.00
2023-03-18T04:38:12.365Z,0.00
2023-03-18T04:40:39.448Z,0.00
2023-03-18T04:43:06.197Z,0.10
2023-03-18T04:45:33.610Z,0.10
2023-03-18T04:48:01.757Z,0.00
2023-03-18T04:50:32.623Z,2.15
2023-03-18T04:53:00.149Z,0.22
2023-03-18T04:55:29.415Z,0.00
2023-03-18T04:57:57.862Z,0.00
2023-03-18T05:00:27.730Z,0.00
2023-03-18T05:03:05.040Z,0.00
2023-03-18T05:05:32.016Z,0.10
2023-03-18T05:08:00.176Z,0.00
2023-03-18T05:10:28.149Z,0.00
2023-03-18T05:12:55.188Z,0.00
2023-03-18T05:15:29.290Z,0.00
2023-03-18T05:17:58.606Z,0.10
2023-03-18T05:20:26.277Z,0.00
2023-03-18T05:22:54.329Z,0.00
2023-03-18T05:25:42.800Z,0.00
2023-03-18T05:28:11.386Z,0.00
2023-03-18T05:30:57.995Z,0.00
2023-03-18T05:33:24.813Z,0.00
2023-03-18T05:35:54.364Z,0.10
2023-03-18T05:38:26.840Z,0.50
2023-03-18T05:40:54.568Z,0.10
2023-03-18T05:43:33.748Z,0.00
2023-03-18T05:46:01.005Z,0.00
2023-03-18T05:48:56.977Z,0.00
2023-03-18T05:51:28.917Z,0.10
2023-03-18T05:53:56.553Z,0.00
2023-03-18T05:56:27.751Z,0.10
2023-03-18T05:58:59.003Z,0.10
2023-03-18T06:01:41.710Z,0.08
2023-03-18T06:04:09.138Z,0.10
2023-03-18T06:06:40.761Z,0.20
2023-03-18T06:09:09.142Z,0.10
2023-03-18T06:11:37.052Z,0.68
2023-03-18T06:14:05.045Z,0.00
2023-03-18T06:16:32.846Z,0.00
2023-03-18T06:18:59.846Z,0.03
2023-03-18T06:21:27.239Z,0.00
2023-03-18T06:23:54.841Z,0.00
2023-03-18T06:26:22.538Z,0.00
2023-03-18T06:28:49.624Z,0.00
2023-03-18T06:31:17.630Z,0.00
2023-03-18T06:33:45.306Z,0.00
2023-03-18T06:36:16.551Z,0.10
2023-03-18T06:38:47.376Z,0.52
2023-03-18T06:41:14.763Z,0.45
2023-03-18T06:43:53.708Z,0.08
2023-03-18T06:46:20.490Z,5.38
2023-03-18T06:48:48.912Z,1.98
2023-03-18T06:51:21.018Z,2.42
2023-03-18T06:53:48.982Z,4.25
2023-03-18T06:56:16.544Z,2.15
2023-03-18T06:59:01.143Z,2.47
2023-03-18T07:01:30.411Z,1.10
2023-03-18T07:03:59.049Z,3.63
2023-03-18T07:06:30.689Z,1.33
2023-03-18T07:08:58.751Z,3.90
2023-03-18T07:11:26.603Z,3.63
2023-03-18T07:13:53.798Z,2.83
2023-03-18T07:16:27.626Z,1.90
2023-03-18T07:18:54.339Z,1.63
2023-03-18T07:21:21.063Z,2.33
2023-03-18T07:23:47.874Z,1.92
2023-03-18T07:26:14.653Z,1.90
2023-03-18T07:28:41.776Z,2.50
2023-03-18T07:31:08.799Z,5.43
2023-03-18T07:33:35.776Z,3.65
2023-03-18T07:36:02.428Z,2.63
2023-03-18T07:38:29.728Z,2.00
2023-03-18T07:40:56.818Z,4.50
2023-03-18T07:43:23.603Z,4.15
2023-03-18T07:45:50.206Z,3.55
2023-03-18T07:48:16.933Z,3.00
2023-03-18T07:50:43.642Z,1.60
2023-03-18T07:53:10.680Z,2.53
2023-03-18T07:55:37.379Z,2.90
2023-03-18T07:58:04.696Z,6.15
2023-03-18T08:00:32.280Z,5.25
2023-03-18T08:02:58.930Z,2.40
2023-03-18T08:05:25.493Z,3.88
2023-03-18T08:07:52.211Z,5.05
2023-03-18T08:10:19.532Z,2.35
2023-03-18T08:12:53.188Z,7.22
2023-03-18T08:15:22.300Z,3.30
2023-03-18T08:17:49.823Z,2.65
2023-03-18T08:20:16.743Z,8.48
2023-03-18T08:22:43.451Z,4.70
2023-03-18T08:25:11.628Z,3.33
2023-03-18T08:27:38.515Z,4.28
2023-03-18T08:30:06.916Z,3.58
2023-03-18T08:32:33.899Z,4.20
2023-03-18T08:35:01.426Z,5.63
2023-03-18T08:37:28.434Z,4.57
2023-03-18T08:39:55.201Z,2.97
2023-03-18T08:42:21.842Z,3.28
2023-03-18T08:44:48.910Z,5.40
2023-03-18T08:47:15.632Z,2.65
2023-03-18T08:49:42.191Z,3.70
2023-03-18T08:52:08.962Z,4.47
2023-03-18T08:54:35.607Z,3.78
2023-03-18T08:57:02.700Z,6.20
2023-03-18T08:59:29.322Z,2.97
2023-03-18T09:01:56.028Z,6.00
2023-03-18T09:04:22.679Z,6.82
2023-03-18T09:06:49.414Z,2.78
2023-03-18T09:09:16.694Z,4.78
2023-03-18T09:11:45.590Z,2.42
2023-03-18T09:14:13.396Z,3.10
2023-03-18T09:16:40.603Z,3.25
2023-03-18T09:19:07.560Z,5.03
2023-03-18T09:21:34.284Z,4.35
2023-03-18T09:24:00.931Z,3.08
2023-03-18T09:26:27.613Z,6.35
2023-03-18T09:28:54.380Z,2.40
2023-03-18T09:31:21.058Z,3.75
2023-03-18T09:33:48.325Z,8.52
2023-03-18T09:36:15.635Z,4.55
2023-03-18T09:38:42.583Z,2.13
2023-03-18T09:41:40.122Z,2.17
2023-03-18T09:44:16.193Z,2.63
2023-03-18T09:47:10.899Z,2.10
2023-03-18T09:49:59.394Z,2.83
2023-03-18T09:52:39.630Z,2.17
2023-03-18T09:55:24.359Z,4.70
2023-03-18T09:57:55.677Z,2.40
2023-03-18T10:00:31.349Z,2.72
2023-03-18T10:03:00.177Z,1.67
2023-03-18T10:05:36.597Z,5.00
2023-03-18T10:08:40.929Z,3.35
2023-03-18T10:11:16.583Z,2.50
2023-03-18T10:13:47.906Z,2.63
2023-03-18T10:16:21.909Z,1.58
2023-03-18T10:18:49.277Z,2.55
2023-03-18T10:21:41.169Z,3.40
2023-03-18T10:24:14.957Z,3.40
2023-03-18T10:26:52.375Z,3.47
2023-03-18T10:29:37.888Z,1.77
2023-03-18T10:32:49.957Z,4.28
2023-03-18T10:35:39.298Z,2.05
2023-03-18T10:38:19.078Z,4.65
2023-03-18T10:40:47.821Z,3.42
2023-03-18T10:43:21.229Z,3.67
2023-03-18T10:45:49.625Z,1.95
2023-03-18T10:48:24.594Z,4.65
2023-03-18T10:51:01.152Z,2.83
2023-03-18T10:53:31.357Z,1.90
2023-03-18T10:56:08.422Z,4.38
2023-03-18T10:58:35.894Z,3.08
2023-03-18T11:01:02.540Z,1.55
2023-03-18T11:03:41.191Z,2.35
2023-03-18T11:06:32.170Z,2.67
2023-03-18T11:09:13.616Z,3.65
2023-03-18T11:11:43.042Z,1.77
2023-03-18T11:14:17.208Z,2.72
2023-03-18T11:16:49.474Z,3.95
2023-03-18T11:19:39.669Z,4.82
2023-03-18T11:22:10.106Z,2.15
2023-03-18T11:27:18.423Z,3.72
2023-03-18T11:29:59.977Z,3.30
2023-03-18T11:32:32.169Z,3.00
2023-03-18T11:35:01.724Z,3.10
2023-03-18T11:37:35.731Z,2.92
2023-03-18T11:40:22.232Z,2.60
2023-03-18T11:42:54.867Z,2.10
2023-03-18T11:45:39.469Z,2.75
2023-03-18T11:48:14.358Z,3.83
2023-03-18T11:50:50.607Z,4.10
2023-03-18T11:53:44.385Z,5.00
2023-03-18T11:56:20.945Z,1.25
2023-03-18T11:58:58.434Z,2.78
2023-03-18T12:01:48.005Z,4.63
2023-03-18T12:04:23.641Z,1.00
2023-03-18T12:06:56.661Z,1.10
2023-03-18T12:10:24.078Z,3.97
2023-03-18T12:13:03.656Z,1.67
2023-03-18T12:16:08.089Z,4.57
2023-03-18T12:18:53.064Z,1.67
2023-03-18T12:21:57.258Z,2.45
2023-03-18T12:24:38.636Z,3.55
2023-03-18T12:27:07.988Z,3.70
2023-03-18T12:29:34.626Z,2.15
2023-03-18T12:32:19.693Z,3.20
2023-03-18T12:35:11.840Z,3.75
2023-03-18T12:37:51.266Z,2.92
2023-03-18T12:40:38.384Z,5.47
2023-03-18T12:43:28.269Z,1.92
2023-03-18T12:46:01.683Z,1.45
2023-03-18T12:48:44.474Z,1.80
2023-03-18T12:51:18.345Z,1.80
2023-03-18T12:53:49.089Z,3.35
2023-03-18T12:56:21.605Z,1.85
2023-03-18T12:58:52.705Z,2.33
2023-03-18T13:01:28.102Z,2.13
2023-03-18T13:04:07.757Z,3.47
2023-03-18T13:07:04.834Z,2.00
2023-03-18T13:09:51.119Z,4.65
2023-03-18T13:12:24.587Z,2.05
2023-03-18T13:15:01.180Z,5.28
2023-03-18T13:17:32.809Z,2.47
2023-03-18T13:20:09.988Z,2.78
2023-03-18T13:22:43.002Z,4.55
2023-03-18T13:25:36.896Z,2.55
2023-03-18T13:28:41.466Z,2.05
2023-03-18T13:31:29.988Z,1.55
2023-03-18T13:34:26.247Z,2.90
2023-03-18T13:37:27.119Z,1.67
2023-03-18T13:40:05.738Z,1.60
2023-03-18T13:42:36.143Z,1.85
2023-03-18T13:47:37.736Z,1.75
2023-03-18T13:50:27.048Z,1.17
2023-03-18T13:52:58.478Z,3.97
2023-03-18T13:55:27.572Z,4.40
2023-03-18T13:58:01.819Z,2.15
2023-03-18T14:00:33.078Z,2.78
2023-03-18T14:03:05.736Z,2.53
2023-03-18T14:05:32.579Z,1.38
2023-03-18T14:08:00.325Z,2.28
2023-03-18T14:10:27.703Z,1.45
2023-03-18T14:12:54.381Z,3.08
2023-03-18T14:15:36.762Z,1.10
2023-03-18T14:18:03.756Z,1.52
2023-03-18T14:20:38.499Z,6.22
2023-03-18T14:23:29.942Z,1.65
2023-03-18T14:26:08.613Z,1.75
2023-03-18T14:28:44.120Z,4.68
2023-03-18T14:31:34.113Z,3.53
2023-03-18T14:34:17.234Z,2.17
2023-03-18T14:36:43.864Z,1.50
2023-03-18T14:39:17.885Z,1.23
2023-03-18T14:41:47.166Z,1.83
2023-03-18T14:44:35.514Z,3.50
2023-03-18T14:47:06.757Z,2.50
2023-03-18T14:49:43.777Z,3.72
2023-03-18T14:52:22.740Z,1.83
2023-03-18T14:54:52.555Z,3.05
2023-03-18T14:57:22.335Z,1.45
2023-03-18T14:59:48.955Z,3.20
2023-03-18T15:02:28.025Z,1.50
2023-03-18T15:04:56.640Z,1.55
2023-03-18T15:07:32.737Z,2.10
2023-03-18T15:10:07.384Z,2.50
2023-03-18T15:12:34.432Z,4.28
2023-03-18T15:15:01.131Z,2.13
2023-03-18T15:17:27.813Z,2.05
2023-03-18T15:20:00.080Z,3.17
2023-03-18T15:22:29.959Z,1.60
2023-03-18T15:25:02.379Z,1.67
2023-03-18T15:27:31.859Z,1.65
2023-03-18T15:30:00.788Z,2.50
2023-03-18T15:32:52.432Z,2.08
2023-03-18T15:35:27.684Z,2.50
2023-03-18T15:38:19.256Z,4.63
2023-03-18T15:40:54.931Z,2.47
2023-03-18T15:43:29.401Z,3.80
2023-03-18T15:45:58.782Z,2.78
2023-03-18T15:48:33.322Z,6.73
2023-03-18T15:51:02.397Z,3.13
2023-03-18T15:53:34.844Z,2.05
2023-03-18T15:56:18.331Z,1.65
2023-03-18T15:58:45.251Z,5.43
2023-03-18T16:01:17.866Z,12.45
2023-03-18T16:03:46.683Z,4.53
2023-03-18T16:06:14.730Z,8.13
2023-03-18T16:08:41.693Z,2.17
2023-03-18T16:11:10.141Z,2.53
2023-03-18T16:13:37.246Z,2.30
2023-03-18T16:16:04.183Z,5.18
2023-03-18T16:18:32.601Z,1.65
2023-03-18T16:21:00.521Z,2.05
2023-03-18T16:23:27.236Z,1.50
2023-03-18T16:25:55.430Z,2.05
2023-03-18T16:28:28.072Z,1.15
2023-03-18T16:30:58.121Z,2.90
2023-03-18T16:33:24.957Z,1.60
2023-03-18T16:35:59.748Z,2.17
2023-03-18T16:38:28.337Z,4.57
2023-03-18T16:40:56.150Z,2.45
2023-03-18T16:43:27.041Z,1.52
2023-03-18T16:45:57.965Z,3.22
2023-03-18T16:48:26.150Z,1.45
2023-03-18T16:50:56.551Z,2.03
2023-03-18T16:53:27.218Z,1.45
2023-03-18T16:55:59.727Z,1.95
2023-03-18T16:58:33.661Z,2.47
2023-03-18T17:01:00.822Z,2.08
2023-03-18T17:03:27.654Z,1.35
2023-03-18T17:05:54.468Z,4.70
2023-03-18T17:08:21.780Z,3.20
2023-03-18T17:10:51.450Z,1.60
2023-03-18T17:13:23.052Z,2.83
2023-03-18T17:15:50.946Z,1.38
2023-03-18T17:18:20.606Z,2.70
2023-03-18T17:20:47.463Z,1.92
2023-03-18T17:23:21.129Z,3.05
2023-03-18T17:25:53.171Z,1.83
2023-03-18T17:28:46.119Z,4.07
2023-03-18T17:31:13.540Z,1.13
2023-03-18T17:33:41.058Z,1.65
2023-03-18T17:36:08.271Z,1.40
2023-03-18T17:38:35.254Z,1.70
2023-03-18T17:41:03.952Z,6.22
2023-03-18T17:43:35.861Z,1.67
2023-03-18T17:46:03.797Z,3.38
2023-03-18T17:48:32.670Z,1.17
2023-03-18T17:51:02.030Z,1.63
2023-03-18T17:53:37.395Z,2.55
2023-03-18T17:56:06.424Z,2.38
2023-03-18T17:58:34.513Z,4.47
2023-03-18T18:01:05.775Z,2.35
2023-03-18T18:03:34.938Z,3.72
2023-03-18T18:06:02.179Z,1.42
2023-03-18T18:08:31.590Z,2.88
2023-03-18T18:11:06.219Z,2.03
2023-03-18T18:13:33.679Z,2.60
2023-03-18T18:16:00.973Z,0.10
2023-03-18T18:18:29.096Z,0.15
2023-03-18T18:20:56.999Z,0.00
2023-03-18T18:23:35.478Z,0.00
2023-03-18T18:26:08.076Z,0.00
2023-03-18T18:28:40.417Z,0.17
2023-03-18T18:31:09.563Z,0.03
2023-03-18T18:33:38.150Z,0.05
2023-03-18T18:36:05.912Z,0.00
2023-03-18T18:38:32.852Z,0.00
2023-03-18T18:41:00.122Z,0.10
2023-03-18T18:43:27.378Z,0.05
2023-03-18T18:45:56.133Z,0.00
2023-03-18T18:48:30.462Z,0.00
2023-03-18T18:50:58.547Z,0.10
2023-03-18T18:53:27.771Z,0.00
2023-03-18T18:56:00.170Z,0.43
2023-03-18T18:58:29.399Z,0.22
2023-03-18T19:00:57.433Z,0.00
2023-03-18T19:03:27.774Z,0.10
2023-03-18T19:05:55.378Z,0.00
2023-03-18T19:08:27.747Z,0.00
2023-03-18T19:10:58.951Z,0.00
2023-03-18T19:13:29.511Z,0.00
2023-03-18T19:18:25.316Z,0.00
2023-03-18T19:20:53.300Z,0.05
2023-03-18T19:23:23.542Z,0.00
2023-03-18T19:25:50.510Z,0.10
2023-03-18T19:28:24.857Z,0.55
2023-03-18T19:30:53.669Z,0.10
2023-03-18T19:33:20.774Z,0.25
2023-03-18T19:35:47.667Z,0.30
2023-03-18T19:38:17.793Z,0.00
2023-03-18T19:40:44.632Z,0.00
2023-03-18T19:43:15.934Z,0.10
2023-03-18T19:45:44.214Z,0.00
2023-03-18T19:48:17.310Z,0.00
2023-03-18T19:50:45.055Z,0.08
2023-03-18T19:53:13.266Z,0.00
2023-03-18T19:55:41.377Z,0.00
2023-03-18T19:58:23.159Z,0.00
2023-03-18T20:00:51.228Z,0.52
2023-03-18T20:03:20.514Z,0.10
2023-03-18T20:05:47.915Z,0.10
2023-03-18T20:08:14.879Z,0.00
2023-03-18T20:10:43.416Z,0.00
2023-03-18T20:13:17.090Z,0.10
2023-03-18T20:15:44.065Z,0.10
2023-03-18T20:18:16.968Z,0.10
2023-03-18T20:20:46.090Z,0.00
2023-03-18T20:23:22.255Z,0.70
2023-03-18T20:25:51.804Z,0.10
2023-03-18T20:28:20.663Z,0.10
2023-03-18T20:30:51.637Z,0.20
2023-03-18T20:33:19.389Z,0.17
2023-03-18T20:35:47.155Z,0.00
2023-03-18T20:38:24.018Z,0.10
2023-03-18T20:40:51.063Z,6.80
2023-03-18T20:43:20.466Z,0.00
2023-03-18T20:45:47.260Z,0.00
2023-03-18T20:48:14.289Z,0.00
2023-03-18T20:50:41.161Z,0.00
2023-03-18T20:53:15.326Z,0.10
2023-03-18T20:55:42.161Z,0.20
2023-03-18T20:58:14.984Z,0.00
2023-03-18T21:00:41.791Z,0.10
2023-03-18T21:03:23.977Z,0.10
2023-03-18T21:05:52.036Z,0.03
2023-03-18T21:08:19.174Z,0.00
2023-03-18T21:10:46.336Z,0.13
2023-03-18T21:13:18.642Z,0.28
2023-03-18T21:15:45.295Z,0.10
2023-03-18T21:18:15.070Z,0.25
2023-03-18T21:20:41.899Z,0.00
2023-03-18T21:23:17.989Z,0.10
2023-03-18T21:25:44.690Z,0.00
2023-03-18T21:28:15.932Z,0.00
2023-03-18T21:30:43.423Z,0.00
2023-03-18T21:33:29.930Z,0.00
2023-03-18T21:35:57.301Z,0.50
2023-03-18T21:38:25.761Z,0.08
2023-03-18T21:40:53.141Z,0.10
2023-03-18T21:43:34.654Z,0.00
2023-03-18T21:46:02.937Z,0.00
2023-03-18T21:48:29.617Z,0.52
2023-03-18T21:50:56.315Z,0.10
2023-03-18T21:53:24.221Z,0.15
2023-03-18T21:55:51.794Z,0.00
2023-03-18T21:58:23.293Z,0.00
2023-03-18T22:00:52.677Z,0.10
2023-03-18T22:03:21.611Z,0.10
2023-03-18T22:05:50.151Z,0.10
2023-03-18T22:08:17.294Z,0.10
2023-03-18T22:10:44.545Z,0.28
2023-03-18T22:13:24.053Z,0.00
2023-03-18T22:15:52.227Z,0.00
2023-03-18T22:18:19.252Z,0.00
2023-03-18T22:20:47.607Z,0.10
2023-03-18T22:23:16.935Z,0.00
2023-03-18T22:25:45.354Z,0.10
2023-03-18T22:28:12.387Z,0.10
2023-03-18T22:30:39.916Z,0.20
2023-03-18T22:33:06.678Z,0.00
2023-03-18T22:35:33.873Z,0.10
2023-03-18T22:38:00.908Z,0.00
2023-03-18T22:40:29.896Z,0.00
2023-03-18T22:42:59.128Z,0.45
2023-03-18T22:45:32.795Z,0.10
2023-03-18T22:48:02.380Z,0.10
2023-03-18T22:50:31.013Z,0.13
2023-03-18T22:53:03.050Z,0.30
2023-03-18T22:55:37.230Z,0.20
2023-03-18T22:58:04.093Z,0.20
2023-03-18T23:00:41.252Z,0.10
2023-03-18T23:03:20.106Z,0.00
2023-03-18T23:05:48.688Z,0.00
2023-03-18T23:08:15.326Z,0.15
2023-03-18T23:10:43.776Z,0.00
2023-03-18T23:13:32.727Z,0.08
2023-03-18T23:15:59.465Z,2.65
2023-03-18T23:18:26.152Z,0.85
2023-03-18T23:20:52.880Z,0.00
2023-03-18T23:23:21.505Z,0.00
2023-03-18T23:25:49.728Z,0.10
2023-03-18T23:28:17.107Z,0.05
2023-03-18T23:30:47.247Z,0.00
2023-03-18T23:33:14.140Z,0.10
2023-03-18T23:35:41.781Z,0.00
2023-03-18T23:38:08.593Z,0.00
2023-03-18T23:40:35.457Z,0.00
2023-03-18T23:43:02.351Z,0.10
2023-03-18T23:45:29.305Z,0.00
2023-03-18T23:47:56.301Z,0.10
2023-03-18T23:50:23.331Z,0.00
2023-03-18T23:52:50.456Z,0.00
2023-03-18T23:55:37.950Z,0.00
2023-03-18T23:58:03.985Z,0.00
